Time;durP1;ratioP1;P1;durP2;ratioP2;P2;SDS_P1;SDS_P2;PMS_P1;PMS_P2;Temp;Humidity;BMP_temperature;BMP_pressure;BME280_temperature;BME280_humidity;BME280_pressure;Samples;Min_cycle;Max_cycle;Signal;HPM_P1;HPM_P2
2024/04/18 07:56:52;;;;;;;;;;;;;;;8.31;100.00;99644.75;5342667;21;19934;-88
2024/04/18 07:59:17;;;;;;;;;;;;;;;8.32;100.00;99641.19;5347130;26;20286;-86
2024/04/18 08:01:42;;;;;;;;;;;;;;;8.30;100.00;99646.53;5315562;26;19937;-89
2024/04/18 08:04:08;;;;;;;;;;;;;;;8.31;100.00;99643.00;5347093;26;19930;-84
2024/04/18 08:06:33;;;;;;;;;;;;;;;8.32;100.00;99643.84;5346536;26;19941;-87
2024/04/18 08:09:00;;;;;;;;;;;;;;;8.34;100.00;99645.53;5316114;26;19930;-87
2024/04/18 08:11:25;;;;;;;;;;;;;;;8.35;100.00;99654.28;5371180;26;19930;-91
2024/04/18 08:13:50;;;;;;;;;;;;;;;8.35;100.00;99656.94;5346480;26;19940;-88
2024/04/18 08:16:16;;;;;;;;;;;;;;;8.35;100.00;99649.88;5314968;26;19934;-86
2024/04/18 08:18:41;;;;;;;;;;;;;;;8.35;100.00;99657.78;5315737;26;19930;-82
2024/04/18 08:21:06;;;;;;;;;;;;;;;8.39;100.00;99655.88;5346263;26;21075;-86
2024/04/18 08:23:34;;;;;;;;;;;;;;;8.39;100.00;99666.44;5315117;26;20193;-86
2024/04/18 08:25:59;;;;;;;;;;;;;;;8.43;100.00;99683.06;5345284;26;19938;-84
2024/04/18 08:28:25;;;;;;;;;;;;;;;8.44;100.00;99690.09;5346337;26;19936;-83
2024/04/18 08:30:50;;;;;;;;;;;;;;;8.45;100.00;99692.66;5345739;26;20480;-83
2024/04/18 08:33:15;;;;;;;;;;;;;;;8.43;100.00;99697.16;5344552;26;19941;-84
2024/04/18 08:35:43;;;;;;;;;;;;;;;8.44;100.00;99696.25;5345615;26;19940;-85
2024/04/18 08:38:08;;;;;;;;;;;;;;;8.45;100.00;99699.75;5372310;26;19938;-86
2024/04/18 08:40:33;;;;;;;;;;;;;;;8.43;100.00;99699.78;5313674;26;20264;-84
2024/04/18 08:42:59;;;;;;;;;;;;;;;8.46;100.00;99697.03;5345941;26;19937;-83
2024/04/18 08:45:24;;;;;;;;;;;;;;;8.47;100.00;99711.09;5345668;26;19962;-82
2024/04/18 08:47:51;;;;;;;;;;;;;;;8.50;100.00;99703.97;5345908;26;20273;-85
2024/04/18 08:50:18;;;;;;;;;;;;;;;8.47;100.00;99706.69;5315314;26;19938;-83
2024/04/18 08:52:44;;;;;;;;;;;;;;;8.51;100.00;99708.31;5345567;26;20369;-88
2024/04/18 08:55:09;;;;;;;;;;;;;;;8.49;100.00;99715.44;5344461;26;19937;-83
2024/04/18 08:57:52;;;;;;;;;;;;;;;8.48;100.00;99705.78;5315085;26;19930;-84
2024/04/18 09:00:17;;;;;;;;;;;;;;;8.49;100.00;99710.16;5315260;26;19930;-83
2024/04/18 09:02:43;;;;;;;;;;;;;;;8.51;100.00;99710.09;5314773;26;19937;-82
2024/04/18 09:08:14;;;;;;;;;;;;;;;8.56;100.00;99723.13;5345515;26;19933;-87
2024/04/18 09:10:40;;;;;;;;;;;;;;;8.54;100.00;99713.47;5313269;26;19941;-80
2024/04/18 09:13:05;;;;;;;;;;;;;;;8.53;100.00;99722.31;5345275;26;20414;-82
2024/04/18 09:15:30;;;;;;;;;;;;;;;8.55;100.00;99724.88;5314942;26;20357;-82
2024/04/18 09:20:58;;;;;;;;;;;;;;;8.61;100.00;99727.31;5344773;26;20411;-83
2024/04/18 09:23:24;;;;;;;;;;;;;;;8.57;100.00;99732.75;5345274;26;19937;-85
2024/04/18 09:25:56;;;;;;;;;;;;;;;8.58;100.00;99734.50;5343707;26;19930;-85
2024/04/18 09:28:21;;;;;;;;;;;;;;;8.56;100.00;99742.47;5342688;26;19934;-82
2024/04/18 09:30:50;;;;;;;;;;;;;;;8.58;100.00;99745.06;5314783;26;19958;-83
2024/04/18 09:33:16;;;;;;;;;;;;;;;8.62;100.00;99747.53;5345210;26;20000;-81
2024/04/18 09:35:42;;;;;;;;;;;;;;;8.62;100.00;99746.69;5343631;26;20349;-81
2024/04/18 09:38:09;;;;;;;;;;;;;;;8.62;100.00;99746.69;5345040;26;20000;-82
2024/04/18 09:40:36;;;;;;;;;;;;;;;7.95;100.00;99756.81;5343580;26;20380;-86
2024/04/18 09:43:22;;;;;;;;;;;;;;;7.09;100.00;99755.03;5343593;26;19938;-88
2024/04/18 09:45:48;;;;;;;;;;;;;;;6.40;100.00;99763.97;5314492;26;19941;-84
2024/04/18 09:48:15;;;;;;;;;;;;;;;6.32;100.00;99759.78;5314693;26;19930;-82
2024/04/18 09:50:40;;;;;;;;;;;;;;;6.18;100.00;99769.78;5314771;26;19930;-84
2024/04/18 09:53:06;;;;;;;;;;;;;;;6.10;100.00;99766.50;5314325;26;19930;-81
2024/04/18 09:55:32;;;;;;;;;;;;;;;5.96;100.00;99767.69;5312975;26;20020;-82
2024/04/18 09:57:57;;;;;;;;;;;;;;;5.87;100.00;99781.03;5344822;26;19938;-83
2024/04/18 10:00:23;;;;;;;;;;;;;;;5.74;100.00;99784.84;5343263;26;19940;-84
2024/04/18 10:02:50;;;;;;;;;;;;;;;5.59;100.00;99786.06;5344554;26;19937;-82
2024/04/18 10:05:16;;;;;;;;;;;;;;;5.68;100.00;99791.13;5314486;26;20003;-92
2024/04/18 10:07:42;;;;;;;;;;;;;;;5.54;100.00;99794.03;5345057;26;20373;-86
2024/04/18 10:10:09;;;;;;;;;;;;;;;5.53;100.00;99789.69;5343109;26;19930;-81
2024/04/18 10:12:34;;;;;;;;;;;;;;;5.44;100.00;99787.25;5343203;26;20000;-85
2024/04/18 10:15:00;;;;;;;;;;;;;;;5.31;100.00;99789.28;5313866;26;20325;-82
2024/04/18 10:17:29;;;;;;;;;;;;;;;5.34;100.00;99790.97;5344413;26;20319;-82
2024/04/18 10:19:58;;;;;;;;;;;;;;;5.35;100.00;99797.97;5343770;26;19937;-87
2024/04/18 10:22:23;;;;;;;;;;;;;;;5.31;100.00;99801.56;5342610;26;19942;-90
2024/04/18 10:24:49;;;;;;;;;;;;;;;5.25;100.00;99799.94;5342975;26;20289;-87
2024/04/18 10:27:18;;;;;;;;;;;;;;;5.15;100.00;99801.88;5344460;26;20065;-89
2024/04/18 10:29:54;;;;;;;;;;;;;;;5.04;100.00;99807.34;5344371;26;19985;-80
2024/04/18 10:32:19;;;;;;;;;;;;;;;5.16;100.00;99803.59;5343607;26;19930;-80
2024/04/18 10:34:45;;;;;;;;;;;;;;;5.08;100.00;99797.66;5344523;26;19999;-88
2024/04/18 10:37:11;;;;;;;;;;;;;;;5.09;100.00;99802.88;5344184;26;20027;-86
2024/04/18 10:39:37;;;;;;;;;;;;;;;5.05;100.00;99805.59;5343471;26;19930;-84
2024/04/18 10:42:03;;;;;;;;;;;;;;;5.19;100.00;99802.69;5316960;26;19930;-83
2024/04/18 10:44:29;;;;;;;;;;;;;;;4.93;100.00;99808.44;5347660;26;20388;-84
2024/04/18 10:46:54;;;;;;;;;;;;;;;4.94;100.00;99811.03;5347238;26;19945;-84
2024/04/18 10:49:21;;;;;;;;;;;;;;;4.98;100.00;99817.09;5347667;26;19942;-82
2024/04/18 10:51:49;;;;;;;;;;;;;;;4.95;100.00;99817.19;5321431;26;19945;-88
2024/04/18 10:54:19;;;;;;;;;;;;;;;4.86;100.00;99815.56;5350281;26;19954;-87
2024/04/18 10:56:45;;;;;;;;;;;;;;;4.97;100.00;99812.75;5316090;26;19977;-86
2024/04/18 10:59:10;;;;;;;;;;;;;;;4.96;100.00;99821.53;5348416;26;19941;-84
2024/04/18 11:01:38;;;;;;;;;;;;;;;4.88;100.00;99816.41;5347876;26;19942;-82
2024/04/18 11:04:04;;;;;;;;;;;;;;;4.97;100.00;99818.00;5347339;26;19937;-81
2024/04/18 11:06:29;;;;;;;;;;;;;;;4.77;100.00;99816.63;5347613;26;19930;-82
2024/04/18 11:08:55;;;;;;;;;;;;;;;4.98;100.00;99817.09;5347753;26;20274;-89
2024/04/18 11:11:25;;;;;;;;;;;;;;;5.44;100.00;99813.53;5345820;26;19930;-84
2024/04/18 11:13:51;;;;;;;;;;;;;;;5.37;100.00;99818.06;5316861;26;19938;-87
2024/04/18 11:16:16;;;;;;;;;;;;;;;5.19;100.00;99818.44;5346621;26;19937;-85
2024/04/18 11:18:42;;;;;;;;;;;;;;;5.12;100.00;99812.44;5347250;26;20350;-81
2024/04/18 11:21:07;;;;;;;;;;;;;;;5.12;100.00;99812.44;5316574;26;19930;-84
2024/04/18 11:23:33;;;;;;;;;;;;;;;5.18;100.00;99816.72;5347089;26;20369;-84
2024/04/18 11:25:58;;;;;;;;;;;;;;;5.05;100.00;99816.09;5345563;26;19930;-82
2024/04/18 11:28:24;;;;;;;;;;;;;;;4.99;100.00;99821.47;5347861;26;19929;-87
2024/04/18 11:30:49;;;;;;;;;;;;;;;4.92;100.00;99820.72;5320104;26;19937;-85
2024/04/18 11:33:18;;;;;;;;;;;;;;;4.99;100.00;99826.72;5347413;26;20366;-85
2024/04/18 11:35:44;;;;;;;;;;;;;;;4.93;100.00;99821.56;5347244;26;20270;-82
2024/04/18 11:38:11;;;;;;;;;;;;;;;4.86;100.00;99821.69;5346841;26;19941;-85
2024/04/18 11:40:36;;;;;;;;;;;;;;;4.81;100.00;99828.78;5345186;26;19930;-87
2024/04/18 11:43:01;;;;;;;;;;;;;;;4.72;100.00;99819.34;5346941;26;19930;-83
2024/04/18 11:45:26;;;;;;;;;;;;;;;4.76;100.00;99819.28;5346711;26;19930;-83
2024/04/18 11:47:56;;;;;;;;;;;;;;;4.79;100.00;99820.09;5346936;26;19934;-84
2024/04/18 11:50:21;;;;;;;;;;;;;;;4.86;100.00;99829.56;5345559;26;19930;-82
2024/04/18 11:52:47;;;;;;;;;;;;;;;4.97;100.00;99823.25;5345923;26;19937;-83
2024/04/18 11:55:12;;;;;;;;;;;;;;;4.85;100.00;99833.09;5349366;26;19942;-86
2024/04/18 11:57:37;;;;;;;;;;;;;;;4.70;100.00;99828.13;5350884;26;19930;-88
2024/04/18 12:00:03;;;;;;;;;;;;;;;4.66;100.00;99836.94;5346546;26;20004;-83
2024/04/18 12:02:31;;;;;;;;;;;;;;;4.66;100.00;99839.56;5347467;26;19945;-90
2024/04/18 12:04:57;;;;;;;;;;;;;;;4.62;100.00;99837.91;5347646;26;19937;-92
2024/04/18 12:07:25;;;;;;;;;;;;;;;4.61;100.00;99838.78;5468650;21;20013;-95
2024/04/18 12:09:53;;;;;;;;;;;;;;;4.69;100.00;99840.41;5326149;26;19937;-83
2024/04/18 12:12:19;;;;;;;;;;;;;;;4.63;100.00;99842.28;5341951;26;19954;-82
2024/04/18 12:14:48;;;;;;;;;;;;;;;4.84;100.00;99843.63;5327699;26;19936;-84
2024/04/18 12:17:14;;;;;;;;;;;;;;;4.76;100.00;99841.16;5326459;26;19930;-85
2024/04/18 12:19:39;;;;;;;;;;;;;;;4.75;100.00;99849.03;5329386;26;20381;-83
2024/04/18 12:22:09;;;;;;;;;;;;;;;4.88;100.00;99851.44;5328669;26;19930;-91
2024/04/18 12:24:35;;;;;;;;;;;;;;;5.57;100.00;99856.22;5328059;26;19931;-85
2024/04/18 12:27:00;;;;;;;;;;;;;;;5.86;100.00;99858.19;5330418;26;19962;-92
2024/04/18 12:29:25;;;;;;;;;;;;;;;6.06;100.00;99855.13;5327231;26;19930;-95
2024/04/18 12:31:51;;;;;;;;;;;;;;;6.17;100.00;99858.41;5331693;26;20427;-94
2024/04/18 12:34:16;;;;;;;;;;;;;;;6.30;100.00;99856.34;5328917;26;19937;-85
2024/04/18 12:36:42;;;;;;;;;;;;;;;6.43;100.00;99863.91;5328746;26;19937;-86
2024/04/18 12:39:07;;;;;;;;;;;;;;;6.50;100.00;99855.81;5328723;26;19938;-86
2024/04/18 12:41:32;;;;;;;;;;;;;;;6.63;100.00;99868.69;5327696;26;19930;-87
2024/04/18 12:43:57;;;;;;;;;;;;;;;6.72;100.00;99871.94;5331237;26;20000;-83
2024/04/18 12:46:24;;;;;;;;;;;;;;;6.84;100.00;99869.91;5329039;26;19942;-82
2024/04/18 12:48:49;;;;;;;;;;;;;;;6.91;100.00;99872.34;5329147;26;19958;-88
2024/04/18 12:51:15;;;;;;;;;;;;;;;6.98;100.00;99880.94;5328867;26;20275;-88
2024/04/18 12:53:40;;;;;;;;;;;;;;;7.07;100.00;99880.69;5331019;26;19931;-86
2024/04/18 12:56:08;;;;;;;;;;;;;;;7.11;100.00;99873.56;5326693;26;20370;-89
2024/04/18 12:58:33;;;;;;;;;;;;;;;7.17;100.00;99872.53;5341676;26;19937;-86
2024/04/18 13:00:59;;;;;;;;;;;;;;;7.23;100.00;99862.69;5329226;26;19930;-84
2024/04/18 13:03:24;;;;;;;;;;;;;;;7.31;100.00;99867.75;5326556;26;20004;-83
2024/04/18 13:05:49;;;;;;;;;;;;;;;7.36;100.00;99873.75;5328012;26;20000;-83
2024/04/18 13:08:14;;;;;;;;;;;;;;;7.41;100.00;99866.56;5328365;26;19930;-85
2024/04/18 13:10:42;;;;;;;;;;;;;;;7.48;100.00;99866.41;5327669;26;19942;-90
2024/04/18 13:13:08;;;;;;;;;;;;;;;7.53;100.00;99869.75;5327953;26;19930;-89
2024/04/18 13:15:33;;;;;;;;;;;;;;;7.56;100.00;99861.75;5327657;26;20294;-89
2024/04/18 13:17:58;;;;;;;;;;;;;;;7.61;100.00;99857.22;5327790;26;19940;-84
2024/04/18 13:20:23;;;;;;;;;;;;;;;7.64;100.00;99854.47;5327817;26;20000;-82
2024/04/18 13:22:49;;;;;;;;;;;;;;;7.67;100.00;99838.56;5328911;26;19930;-86
2024/04/18 13:25:14;;;;;;;;;;;;;;;7.72;100.00;99844.59;5327226;26;20382;-85
2024/04/18 13:27:39;;;;;;;;;;;;;;;7.73;100.00;99840.19;5327738;26;19938;-83
2024/04/18 13:30:06;;;;;;;;;;;;;;;7.79;100.00;99837.34;5328128;26;19930;-85
2024/04/18 13:32:35;;;;;;;;;;;;;;;7.84;100.00;99837.22;5328595;26;20357;-85
2024/04/18 13:35:00;;;;;;;;;;;;;;;7.84;100.00;99835.44;5369239;26;19937;-87
2024/04/18 13:37:26;;;;;;;;;;;;;;;7.89;100.00;99840.56;5369620;26;19934;-84
2024/04/18 13:39:54;;;;;;;;;;;;;;;7.92;100.00;99845.75;5325947;26;20544;-80
2024/04/18 13:42:19;;;;;;;;;;;;;;;7.92;100.00;99845.75;5328248;26;20368;-80
2024/04/18 13:44:44;;;;;;;;;;;;;;;7.96;100.00;99847.38;5328340;26;19930;-80
2024/04/18 13:47:10;;;;;;;;;;;;;;;7.98;100.00;99849.06;5327932;26;19931;-77
2024/04/18 13:49:35;;;;;;;;;;;;;;;7.98;100.00;99841.16;5327801;26;20365;-81
2024/04/18 13:52:00;;;;;;;;;;;;;;;7.02;100.00;99840.44;5325167;26;19931;-81
2024/04/18 13:54:26;;;;;;;;;;;;;;;6.48;100.00;99851.53;5325160;26;19999;-81
2024/04/18 13:56:51;;;;;;;;;;;;;;;6.16;100.00;99846.13;5327594;26;19934;-87
2024/04/18 13:59:16;;;;;;;;;;;;;;;6.03;100.00;99843.81;5325815;26;20357;-86
2024/04/18 14:01:42;;;;;;;;;;;;;;;6.06;100.00;99855.13;5325780;26;19937;-86
2024/04/18 14:04:07;;;;;;;;;;;;;;;5.91;100.00;99855.47;5327573;26;20361;-88
2024/04/18 14:06:32;;;;;;;;;;;;;;;5.84;100.00;99854.75;5328036;26;19938;-84
2024/04/18 14:08:58;;;;;;;;;;;;;;;5.84;100.00;99852.13;5327509;26;19930;-85
2024/04/18 14:11:24;;;;;;;;;;;;;;;5.66;100.00;99861.25;5326578;26;19939;-87
2024/04/18 14:13:49;;;;;;;;;;;;;;;5.80;100.00;99868.84;5327493;26;19937;-84
2024/04/18 14:18:59;;;;;;;;;;;;;;;5.68;100.00;99874.34;5337003;26;20001;-85
2024/04/18 14:21:24;;;;;;;;;;;;;;;5.58;100.00;99868.44;5330253;26;19941;-87
2024/04/18 14:23:49;;;;;;;;;;;;;;;5.41;100.00;99874.06;5333417;26;19938;-91
2024/04/18 14:26:14;;;;;;;;;;;;;;;5.45;100.00;99875.72;5329827;26;19965;-85
2024/04/18 14:28:40;;;;;;;;;;;;;;;5.43;100.00;99880.16;5328237;26;19941;-84
2024/04/18 14:31:05;;;;;;;;;;;;;;;5.30;100.00;99876.91;5330390;26;19939;-88
2024/04/18 14:33:30;;;;;;;;;;;;;;;5.35;100.00;99874.19;5329992;26;19930;-87
2024/04/18 14:35:56;;;;;;;;;;;;;;;5.31;100.00;99869.88;5330196;26;19933;-84
2024/04/18 14:38:21;;;;;;;;;;;;;;;5.35;100.00;99872.41;5328604;26;19930;-87
2024/04/18 14:40:46;;;;;;;;;;;;;;;5.22;100.00;99877.03;5326880;26;20350;-83
2024/04/18 14:43:12;;;;;;;;;;;;;;;5.17;100.00;99873.66;5330557;26;19930;-86
2024/04/18 14:45:38;;;;;;;;;;;;;;;5.26;100.00;99868.22;5330529;26;20008;-85
2024/04/18 14:48:03;;;;;;;;;;;;;;;5.31;100.00;99872.50;5318160;26;19938;-83
2024/04/18 14:50:29;;;;;;;;;;;;;;;5.06;100.00;99870.38;5327862;26;19937;-89
2024/04/18 14:52:54;;;;;;;;;;;;;;;5.18;100.00;99874.50;5328909;26;19930;-84
2024/04/18 14:55:19;;;;;;;;;;;;;;;5.09;100.00;99867.69;5327117;26;19931;-86
2024/04/18 14:57:45;;;;;;;;;;;;;;;5.18;100.00;99872.72;5327967;26;19938;-86
2024/04/18 15:00:10;;;;;;;;;;;;;;;5.04;100.00;99872.13;5327735;26;19930;-84
2024/04/18 15:02:35;;;;;;;;;;;;;;;5.39;100.00;99867.94;5328757;26;19930;-87
2024/04/18 15:05:00;;;;;;;;;;;;;;;5.86;100.00;99870.50;5330183;26;20404;-85
2024/04/18 15:07:26;;;;;;;;;;;;;;;6.11;100.00;99871.69;5329036;26;20362;-85
2024/04/18 15:09:52;;;;;;;;;;;;;;;6.32;100.00;99867.69;5328356;26;20009;-87
2024/04/18 15:12:17;;;;;;;;;;;;;;;6.49;100.00;99863.75;5330511;26;19937;-85
2024/04/18 15:14:43;;;;;;;;;;;;;;;6.64;100.00;99863.38;5329879;26;19943;-85
2024/04/18 15:17:09;;;;;;;;;;;;;;;6.82;100.00;99872.56;5327763;26;20353;-82
2024/04/18 15:19:35;;;;;;;;;;;;;;;6.95;100.00;99862.56;5329936;26;20453;-84
2024/04/18 15:22:00;;;;;;;;;;;;;;;7.04;100.00;99864.97;5329077;26;19930;-88
2024/04/18 15:24:25;;;;;;;;;;;;;;;7.18;100.00;99861.06;5327627;26;19930;-81
2024/04/18 15:26:50;;;;;;;;;;;;;;;7.26;100.00;99861.75;5328121;26;19934;-85
2024/04/18 15:29:16;;;;;;;;;;;;;;;7.35;100.00;99865.88;5329530;26;19939;-88
2024/04/18 15:31:41;;;;;;;;;;;;;;;7.38;100.00;99869.28;5329156;26;19937;-88
2024/04/18 15:34:07;;;;;;;;;;;;;;;7.50;100.00;99869.84;5331194;26;19940;-88
2024/04/18 15:36:34;;;;;;;;;;;;;;;7.53;100.00;99864.50;5332562;26;20008;-84
2024/04/18 15:38:59;;;;;;;;;;;;;;;7.59;100.00;99867.81;5331266;26;19936;-85
2024/04/18 15:41:24;;;;;;;;;;;;;;;7.65;100.00;99858.88;5326947;26;19939;-85
2024/04/18 15:43:50;;;;;;;;;;;;;;;7.71;100.00;99857.84;5337684;21;19930;-91
2024/04/18 15:46:15;;;;;;;;;;;;;;;7.77;100.00;99858.50;5364716;26;19930;-96
2024/04/18 15:48:45;;;;;;;;;;;;;;;7.79;100.00;99856.66;5335827;26;19934;-90
2024/04/18 15:51:10;;;;;;;;;;;;;;;7.84;100.00;99856.53;5348465;26;19930;-91
2024/04/18 15:53:35;;;;;;;;;;;;;;;7.86;100.00;99851.22;5365701;26;19930;-88
2024/04/18 15:56:01;;;;;;;;;;;;;;;7.89;100.00;99854.63;5364850;26;19938;-90
2024/04/18 15:58:26;;;;;;;;;;;;;;;7.94;100.00;99854.47;5362962;26;19937;-84
2024/04/18 16:00:51;;;;;;;;;;;;;;;7.96;100.00;99852.66;5361682;26;20259;-89
2024/04/18 16:03:16;;;;;;;;;;;;;;;7.99;100.00;99853.44;5362678;26;19941;-87
2024/04/18 16:05:42;;;;;;;;;;;;;;;8.03;100.00;99851.56;5363575;26;20247;-85
2024/04/18 16:08:07;;;;;;;;;;;;;;;8.06;100.00;99859.38;5364378;26;20310;-84
2024/04/18 16:13:28;;;;;;;;;;;;;;;6.54;100.00;99853.97;5323330;26;20320;-89
2024/04/18 16:16:00;;;;;;;;;;;;;;;6.36;100.00;99853.53;5363250;26;19946;-82
2024/04/18 16:18:26;;;;;;;;;;;;;;;6.29;100.00;99862.50;5363442;26;19937;-84
2024/04/18 16:20:55;;;;;;;;;;;;;;;6.03;100.00;99867.50;5364471;26;20376;-84
2024/04/18 16:23:21;;;;;;;;;;;;;;;5.93;100.00;99872.91;5362399;26;20000;-85
2024/04/18 16:25:46;;;;;;;;;;;;;;;5.84;100.00;99867.91;5331554;26;20339;-84
2024/04/18 16:28:11;;;;;;;;;;;;;;;5.70;100.00;99875.22;5363178;26;19937;-84
2024/04/18 16:30:39;;;;;;;;;;;;;;;5.42;100.00;99873.16;5333972;26;19944;-83
2024/04/18 16:33:05;;;;;;;;;;;;;;;5.48;100.00;99869.53;5363452;26;20028;-85
2024/04/18 16:35:30;;;;;;;;;;;;;;;5.49;100.00;99879.13;5364593;26;20340;-84
2024/04/18 16:37:55;;;;;;;;;;;;;;;5.44;100.00;99876.59;5332010;26;19938;-86
2024/04/18 16:40:20;;;;;;;;;;;;;;;5.30;100.00;99881.25;5361958;26;20287;-85
2024/04/18 16:42:46;;;;;;;;;;;;;;;5.32;100.00;99882.97;5362961;26;20009;-84
2024/04/18 16:45:11;;;;;;;;;;;;;;;5.39;100.00;99874.09;5361574;26;19930;-84
2024/04/18 16:47:36;;;;;;;;;;;;;;;5.40;100.00;99882.84;5362693;26;19936;-84
2024/04/18 16:50:02;;;;;;;;;;;;;;;5.25;100.00;99892.75;5362915;26;19930;-84
2024/04/18 16:52:27;;;;;;;;;;;;;;;5.23;100.00;99894.56;5361492;26;19930;-85
2024/04/18 16:54:52;;;;;;;;;;;;;;;5.21;100.00;99891.06;5330673;26;19938;-85
2024/04/18 16:57:18;;;;;;;;;;;;;;;5.23;100.00;99896.28;5362810;26;19929;-85
2024/04/18 16:59:43;;;;;;;;;;;;;;;5.08;100.00;99895.69;5332841;26;19929;-86
2024/04/18 17:02:08;;;;;;;;;;;;;;;5.19;100.00;99892.00;5363349;26;19934;-83
2024/04/18 17:04:35;;;;;;;;;;;;;;;5.26;100.00;99901.50;5364206;26;19938;-84
2024/04/18 17:07:00;;;;;;;;;;;;;;;5.26;100.00;99905.00;5345417;26;19960;-83
2024/04/18 17:09:25;;;;;;;;;;;;;;;5.09;100.00;99910.56;5362078;26;19941;-84
2024/04/18 17:11:50;;;;;;;;;;;;;;;5.12;100.00;99907.00;5329552;26;19936;-82
2024/04/18 17:14:16;;;;;;;;;;;;;;;5.08;100.00;99908.81;5363885;26;19977;-84
2024/04/18 17:16:41;;;;;;;;;;;;;;;5.12;100.00;99907.00;5361894;26;20274;-84
2024/04/18 17:19:06;;;;;;;;;;;;;;;4.91;100.00;99908.25;5362528;26;19929;-83
2024/04/18 17:21:33;;;;;;;;;;;;;;;5.44;100.00;99918.66;5362465;26;19941;-82
2024/04/18 17:23:59;;;;;;;;;;;;;;;5.90;100.00;99914.22;5361982;26;19930;-81
2024/04/18 17:26:24;;;;;;;;;;;;;;;6.17;100.00;99915.41;5361101;26;20321;-82
2024/04/18 17:28:49;;;;;;;;;;;;;;;6.38;100.00;99902.66;5361287;26;19945;-82
2024/04/18 17:31:15;;;;;;;;;;;;;;;6.55;100.00;99916.28;5365375;26;19945;-82
2024/04/18 17:33:40;;;;;;;;;;;;;;;6.66;100.00;99921.28;5362636;26;19937;-83
2024/04/18 17:36:05;;;;;;;;;;;;;;;6.84;100.00;99912.91;5362214;26;19936;-83
2024/04/18 17:38:31;;;;;;;;;;;;;;;6.94;100.00;99910.91;5332136;26;19934;-81
2024/04/18 17:40:56;;;;;;;;;;;;;;;7.03;100.00;99907.16;5362434;26;20000;-82
2024/04/18 17:43:21;;;;;;;;;;;;;;;7.15;100.00;99905.97;5363291;26;19940;-88
2024/04/18 17:45:47;;;;;;;;;;;;;;;7.22;100.00;99908.41;5363770;26;19999;-83
2024/04/18 17:48:12;;;;;;;;;;;;;;;7.33;100.00;99907.25;5361809;26;20280;-92
2024/04/18 17:50:37;;;;;;;;;;;;;;;7.39;100.00;99917.63;5363082;26;19934;-82
2024/04/18 17:53:03;;;;;;;;;;;;;;;7.44;100.00;99911.31;5364612;26;20382;-84
2024/04/18 17:55:28;;;;;;;;;;;;;;;7.52;100.00;99910.25;5367240;26;19930;-87
2024/04/18 17:57:53;;;;;;;;;;;;;;;7.57;100.00;99913.59;5349286;26;19944;-90
2024/04/18 18:00:19;;;;;;;;;;;;;;;7.61;100.00;99915.22;5337978;26;19940;-86
2024/04/18 18:02:44;;;;;;;;;;;;;;;7.67;100.00;99924.75;5336238;26;19930;-85
2024/04/18 18:05:09;;;;;;;;;;;;;;;7.72;100.00;99922.84;5334367;26;20434;-86
2024/04/18 18:07:36;;;;;;;;;;;;;;;7.77;100.00;99920.94;5335723;26;19937;-83
2024/04/18 18:10:01;;;;;;;;;;;;;;;7.82;100.00;99921.69;5364041;26;19930;-81
2024/04/18 18:12:27;;;;;;;;;;;;;;;7.86;100.00;99925.09;5364809;26;19974;-80
2024/04/18 18:14:52;;;;;;;;;;;;;;;7.92;100.00;99924.91;5364711;26;19930;-79
2024/04/18 18:17:17;;;;;;;;;;;;;;;7.94;100.00;99926.56;5364490;26;19938;-80
2024/04/18 18:19:43;;;;;;;;;;;;;;;7.95;100.00;99930.94;5363279;26;19961;-83
2024/04/18 18:22:08;;;;;;;;;;;;;;;7.99;100.00;99931.72;5365969;26;19930;-80
2024/04/18 18:24:36;;;;;;;;;;;;;;;8.03;100.00;99936.00;5363157;26;19937;-80
2024/04/18 18:27:01;;;;;;;;;;;;;;;8.04;100.00;99935.09;5334545;26;19983;-82
2024/04/18 18:29:26;;;;;;;;;;;;;;;8.08;100.00;99941.16;5365389;26;19937;-82
2024/04/18 18:31:51;;;;;;;;;;;;;;;7.22;100.00;99944.44;5364684;26;19930;-79
2024/04/18 18:34:16;;;;;;;;;;;;;;;6.47;100.00;99958.56;5365162;26;19956;-80
2024/04/18 18:36:42;;;;;;;;;;;;;;;6.17;100.00;99957.50;5364911;26;19930;-81
2024/04/18 18:39:07;;;;;;;;;;;;;;;5.95;100.00;99963.19;5332512;26;19929;-81
2024/04/18 18:41:33;;;;;;;;;;;;;;;5.85;100.00;99964.28;5364205;26;19937;-81
2024/04/18 18:43:58;;;;;;;;;;;;;;;5.75;100.00;99965.38;5364992;26;19937;-79
2024/04/18 18:46:23;;;;;;;;;;;;;;;5.60;100.00;99972.66;5333472;26;20329;-82
2024/04/18 18:48:49;;;;;;;;;;;;;;;5.51;100.00;99967.59;5349435;26;19930;-87
2024/04/18 18:51:14;;;;;;;;;;;;;;;5.50;100.00;99976.34;5366469;26;19940;-83
2024/04/18 18:53:39;;;;;;;;;;;;;;;5.40;100.00;99974.81;5363184;26;20327;-87
2024/04/18 18:56:04;;;;;;;;;;;;;;;5.27;100.00;99977.66;5361116;26;19929;-80
2024/04/18 18:58:30;;;;;;;;;;;;;;;5.18;100.00;99983.06;5332912;26;19941;-82
2024/04/18 19:00:55;;;;;;;;;;;;;;;5.21;100.00;99988.28;5333235;26;19999;-84
2024/04/18 19:03:20;;;;;;;;;;;;;;;5.16;100.00;99989.25;5337686;26;19930;-82
2024/04/18 19:05:46;;;;;;;;;;;;;;;5.15;100.00;99993.63;5362942;26;19937;-81
2024/04/18 19:08:12;;;;;;;;;;;;;;;5.09;100.00;99993.75;5364677;26;19937;-84
2024/04/18 19:10:37;;;;;;;;;;;;;;;5.05;100.00;99999.94;5332449;26;20349;-86
2024/04/18 19:13:02;;;;;;;;;;;;;;;5.04;100.00;99996.47;5364988;26;19930;-85
2024/04/18 19:15:28;;;;;;;;;;;;;;;5.02;100.00;99997.38;5362508;26;19936;-84
2024/04/18 19:17:54;;;;;;;;;;;;;;;4.98;100.00;100001.81;5364597;26;19930;-83
2024/04/18 19:20:19;;;;;;;;;;;;;;;4.95;100.00;99998.38;5362826;26;19937;-79
2024/04/18 19:22:45;;;;;;;;;;;;;;;4.87;100.00;100004.59;5362852;26;19937;-83
2024/04/18 19:25:10;;;;;;;;;;;;;;;4.83;100.00;99999.41;5330936;26;19930;-85
2024/04/18 19:27:35;;;;;;;;;;;;;;;4.85;100.00;100003.78;5365068;26;19942;-80
2024/04/18 19:30:01;;;;;;;;;;;;;;;4.90;100.00;100001.94;5364023;26;19965;-82
2024/04/18 19:32:26;;;;;;;;;;;;;;;4.78;100.00;99999.50;5332898;26;19942;-80
2024/04/18 19:34:52;;;;;;;;;;;;;;;4.78;100.00;100003.88;5364787;26;19930;-81
2024/04/18 19:37:17;;;;;;;;;;;;;;;5.01;100.00;99996.50;5362801;26;19944;-81
2024/04/18 19:39:42;;;;;;;;;;;;;;;5.68;100.00;99997.94;5364042;26;19934;-82
2024/04/18 19:42:07;;;;;;;;;;;;;;;6.00;100.00;100006.09;5333001;26;19930;-82
2024/04/18 19:44:33;;;;;;;;;;;;;;;6.26;100.00;99999.41;5363652;26;19954;-80
2024/04/18 19:46:58;;;;;;;;;;;;;;;6.48;100.00;99996.31;5363577;26;20334;-81
2024/04/18 19:49:24;;;;;;;;;;;;;;;6.63;100.00;99998.56;5363654;26;19937;-87
2024/04/18 19:51:49;;;;;;;;;;;;;;;6.78;100.00;99996.47;5335352;26;19979;-83
2024/04/18 19:54:14;;;;;;;;;;;;;;;6.93;100.00;99996.13;5365780;26;19931;-83
2024/04/18 19:56:39;;;;;;;;;;;;;;;7.03;100.00;99992.34;5331602;26;19937;-83
2024/04/18 19:59:05;;;;;;;;;;;;;;;7.14;100.00;99989.44;5363351;26;19934;-85
2024/04/18 20:01:32;;;;;;;;;;;;;;;7.22;100.00;99984.81;5364829;26;20376;-81
2024/04/18 20:03:57;;;;;;;;;;;;;;;7.32;100.00;99976.69;5362543;26;19933;-84
2024/04/18 20:06:22;;;;;;;;;;;;;;;7.39;100.00;99978.25;5363970;26;19944;-86
2024/04/18 20:08:48;;;;;;;;;;;;;;;7.48;100.00;99977.13;5333975;26;19930;-81
2024/04/18 20:11:13;;;;;;;;;;;;;;;7.53;100.00;99967.31;5363012;26;19930;-84
2024/04/18 20:13:38;;;;;;;;;;;;;;;7.60;100.00;99971.53;5363085;26;19999;-86
2024/04/18 20:16:04;;;;;;;;;;;;;;;7.64;100.00;99970.53;5366577;26;19930;-82
2024/04/18 20:18:29;;;;;;;;;;;;;;;7.69;100.00;99973.94;5363166;26;19930;-79
2024/04/18 20:20:54;;;;;;;;;;;;;;;7.73;100.00;99972.06;5361841;26;19938;-80
2024/04/18 20:23:19;;;;;;;;;;;;;;;7.77;100.00;99965.78;5362402;26;19937;-83
2024/04/18 20:25:44;;;;;;;;;;;;;;;7.84;100.00;99971.75;5362618;26;20296;-82
2024/04/18 20:28:10;;;;;;;;;;;;;;;7.87;100.00;99974.31;5361676;26;20589;-86
2024/04/18 20:30:35;;;;;;;;;;;;;;;7.92;100.00;99967.13;5333292;26;19937;-79
2024/04/18 20:33:00;;;;;;;;;;;;;;;7.95;100.00;99972.31;5367340;26;19930;-87
2024/04/18 20:35:25;;;;;;;;;;;;;;;7.94;100.00;99960.88;5361848;26;19930;-83
2024/04/18 20:37:51;;;;;;;;;;;;;;;7.98;100.00;99966.94;5337211;26;19929;-83
2024/04/18 20:40:17;;;;;;;;;;;;;;;8.03;100.00;99970.31;5360532;26;19938;-87
2024/04/18 20:42:42;;;;;;;;;;;;;;;8.06;100.00;99975.50;5333474;26;19941;-87
2024/04/18 20:45:07;;;;;;;;;;;;;;;7.23;100.00;99983.94;5332656;26;20320;-84